createdAt,value
2023-03-08T00:00:54.654Z,21.13
2023-03-08T00:03:22.113Z,26.33
2023-03-08T00:05:49.840Z,25.17
2023-03-08T00:08:24.202Z,18.55
2023-03-08T00:10:53.151Z,25.83
2023-03-08T00:13:21.888Z,21.85
2023-03-08T00:15:53.278Z,23.45
2023-03-08T00:18:21.865Z,23.23
2023-03-08T00:21:15.865Z,21.27
2023-03-08T00:23:47.017Z,28.17
2023-03-08T00:26:14.918Z,23.00
2023-03-08T00:28:47.825Z,20.15
2023-03-08T00:31:18.361Z,23.52
2023-03-08T00:33:46.104Z,21.40
2023-03-08T00:36:21.827Z,19.48
2023-03-08T00:41:23.484Z,23.60
2023-03-08T00:43:56.395Z,22.85
2023-03-08T00:46:31.578Z,19.27
2023-03-08T00:49:08.249Z,17.33
2023-03-08T00:51:37.962Z,16.33
2023-03-08T00:54:05.992Z,18.25
2023-03-08T00:56:34.051Z,21.58
2023-03-08T00:59:04.337Z,17.10
2023-03-08T01:01:32.972Z,17.40
2023-03-08T01:04:05.293Z,21.23
2023-03-08T01:06:36.700Z,19.75
2023-03-08T01:09:10.509Z,20.08
2023-03-08T01:11:47.385Z,16.65
2023-03-08T01:14:18.214Z,18.40
2023-03-08T01:17:02.986Z,15.60
2023-03-08T01:19:40.360Z,17.88
2023-03-08T01:22:11.415Z,14.07
2023-03-08T01:24:51.060Z,17.17
2023-03-08T01:29:59.048Z,14.43
2023-03-08T01:32:36.095Z,14.27
2023-03-08T01:35:10.381Z,15.32
2023-03-08T01:37:54.634Z,20.88
2023-03-08T01:40:28.437Z,24.80
2023-03-08T01:43:36.865Z,23.90
2023-03-08T01:46:37.475Z,20.48
2023-03-08T01:49:35.188Z,24.40
2023-03-08T01:52:51.755Z,14.55
2023-03-08T01:55:33.164Z,20.30
2023-03-08T01:58:10.012Z,16.75
2023-03-08T02:00:43.247Z,19.60
2023-03-08T02:03:14.761Z,18.75
2023-03-08T02:05:48.278Z,16.45
2023-03-08T02:08:49.320Z,17.02
2023-03-08T02:11:24.342Z,14.52
2023-03-08T02:14:04.770Z,18.73
2023-03-08T02:16:33.381Z,17.15
2023-03-08T02:19:08.549Z,18.15
2023-03-08T02:24:24.796Z,17.30
2023-03-08T02:27:01.181Z,23.08
2023-03-08T02:29:31.346Z,19.33
2023-03-08T02:31:58.733Z,19.83
2023-03-08T02:34:25.942Z,18.85
2023-03-08T02:36:53.213Z,19.90
2023-03-08T02:39:20.352Z,21.27
2023-03-08T02:41:47.597Z,20.67
2023-03-08T02:44:14.903Z,22.45
2023-03-08T02:46:52.436Z,19.23
2023-03-08T02:49:19.821Z,18.00
2023-03-08T02:51:47.208Z,22.15
2023-03-08T02:54:16.922Z,17.05
2023-03-08T02:56:44.444Z,22.75
2023-03-08T02:59:13.744Z,20.80
2023-03-08T03:01:42.886Z,17.27
2023-03-08T03:04:12.869Z,19.13
2023-03-08T03:06:40.291Z,21.67
2023-03-08T03:09:10.267Z,19.80
2023-03-08T03:11:40.996Z,21.00
2023-03-08T03:14:08.545Z,22.23
2023-03-08T03:16:40.570Z,21.65
2023-03-08T03:19:09.907Z,19.10
2023-03-08T03:21:39.904Z,18.20
2023-03-08T03:24:08.037Z,23.00
2023-03-08T03:26:43.914Z,22.00
2023-03-08T03:29:11.392Z,20.35
2023-03-08T03:31:41.495Z,19.75
2023-03-08T03:34:14.183Z,22.67
2023-03-08T03:36:58.249Z,21.20
2023-03-08T03:39:26.552Z,19.73
2023-03-08T03:41:56.449Z,19.83
2023-03-08T03:44:24.781Z,22.48
2023-03-08T03:46:54.873Z,20.55
2023-03-08T03:49:29.634Z,18.83
2023-03-08T03:51:59.835Z,26.10
2023-03-08T03:54:45.444Z,26.27
2023-03-08T03:57:18.269Z,22.70
2023-03-08T03:59:46.345Z,20.77
2023-03-08T04:02:13.902Z,24.48
2023-03-08T04:04:52.362Z,22.63
2023-03-08T04:07:23.914Z,19.95
2023-03-08T04:10:08.015Z,20.35
2023-03-08T04:12:39.544Z,25.05
2023-03-08T04:15:08.465Z,22.75
2023-03-08T04:17:38.342Z,23.50
2023-03-08T04:20:08.687Z,26.95
2023-03-08T04:22:42.075Z,27.55
2023-03-08T04:25:18.977Z,26.33
2023-03-08T04:27:53.398Z,24.30
2023-03-08T04:30:24.072Z,23.40
2023-03-08T04:32:52.565Z,23.90
2023-03-08T04:35:26.549Z,24.20
2023-03-08T04:37:55.693Z,25.85
2023-03-08T04:40:30.073Z,22.15
2023-03-08T04:43:01.165Z,19.50
2023-03-08T04:45:36.156Z,24.25
2023-03-08T04:48:09.200Z,23.67
2023-03-08T04:50:36.666Z,20.40
2023-03-08T04:53:05.811Z,21.60
2023-03-08T04:55:33.258Z,20.17
2023-03-08T04:58:02.485Z,20.92
2023-03-08T05:00:32.335Z,20.45
2023-03-08T05:02:59.675Z,19.80
2023-03-08T05:05:27.301Z,20.50
2023-03-08T05:07:55.419Z,20.80
2023-03-08T05:10:22.703Z,19.42
2023-03-08T05:12:50.832Z,17.23
2023-03-08T05:15:18.174Z,20.50
2023-03-08T05:17:46.676Z,18.33
2023-03-08T05:20:14.320Z,20.58
2023-03-08T05:22:57.230Z,19.55
2023-03-08T05:25:31.405Z,17.38
2023-03-08T05:28:00.127Z,18.02
2023-03-08T05:30:28.115Z,23.67
2023-03-08T05:32:55.781Z,17.90
2023-03-08T05:35:23.790Z,16.80
2023-03-08T05:37:51.825Z,18.25
2023-03-08T05:40:19.716Z,20.80
2023-03-08T05:42:47.724Z,21.52
2023-03-08T05:45:16.551Z,16.70
2023-03-08T05:47:47.087Z,18.80
2023-03-08T05:50:14.892Z,21.67
2023-03-08T05:52:44.030Z,17.08
2023-03-08T05:55:18.935Z,21.95
2023-03-08T05:57:49.609Z,18.20
2023-03-08T06:00:20.812Z,22.48
2023-03-08T06:02:53.325Z,22.27
2023-03-08T06:05:22.022Z,19.48
2023-03-08T06:07:53.969Z,17.73
2023-03-08T06:10:22.082Z,23.92
2023-03-08T06:12:51.469Z,18.20
2023-03-08T06:15:20.900Z,18.10
2023-03-08T06:17:48.585Z,17.92
2023-03-08T06:20:19.411Z,16.60
2023-03-08T06:22:50.320Z,19.63
2023-03-08T06:25:19.939Z,15.88
2023-03-08T06:27:48.281Z,18.52
2023-03-08T06:30:23.838Z,16.75
2023-03-08T06:35:19.803Z,23.75
2023-03-08T06:37:54.386Z,20.90
2023-03-08T06:40:21.810Z,18.90
2023-03-08T06:42:50.089Z,21.05
2023-03-08T06:47:45.824Z,17.90
2023-03-08T06:52:45.504Z,16.65
2023-03-08T06:55:14.925Z,17.88
2023-03-08T06:57:43.316Z,17.25
2023-03-08T07:00:12.475Z,20.33
2023-03-08T07:02:40.195Z,18.50
2023-03-08T07:05:08.385Z,18.17
2023-03-08T07:07:36.887Z,17.95
2023-03-08T07:10:06.034Z,21.08
2023-03-08T07:12:37.312Z,20.25
2023-03-08T07:15:14.951Z,28.75
2023-03-08T07:17:43.863Z,18.92
2023-03-08T07:20:16.541Z,21.27
2023-03-08T07:22:45.656Z,24.02
2023-03-08T07:25:16.814Z,22.02
2023-03-08T07:27:45.098Z,24.27
2023-03-08T07:30:16.384Z,18.75
2023-03-08T07:32:45.005Z,17.45
2023-03-08T07:35:16.276Z,17.05
2023-03-08T07:37:48.072Z,17.20
2023-03-08T07:40:18.556Z,20.88
2023-03-08T07:42:46.750Z,20.17
2023-03-08T07:45:40.595Z,19.30
2023-03-08T07:48:08.026Z,21.75
2023-03-08T07:50:42.805Z,20.10
2023-03-08T07:53:12.175Z,21.60
2023-03-08T07:55:48.712Z,25.60
2023-03-08T07:58:19.036Z,17.50
2023-03-08T08:00:48.610Z,24.48
2023-03-08T08:03:16.334Z,20.00
2023-03-08T08:05:44.390Z,23.25
2023-03-08T08:08:14.316Z,22.70
2023-03-08T08:10:43.888Z,23.05
2023-03-08T08:13:11.645Z,19.73
2023-03-08T08:15:38.839Z,20.95
2023-03-08T08:18:06.159Z,23.67
2023-03-08T08:20:33.345Z,20.52
2023-03-08T08:23:00.527Z,19.95
2023-03-08T08:25:27.768Z,20.42
2023-03-08T08:27:55.020Z,20.33
2023-03-08T08:30:22.649Z,17.80
2023-03-08T08:32:49.944Z,17.77
2023-03-08T08:35:17.315Z,19.85
2023-03-08T08:37:44.484Z,21.40
2023-03-08T08:40:12.574Z,20.48
2023-03-08T08:42:40.187Z,18.35
2023-03-08T08:45:09.319Z,18.50
2023-03-08T08:47:36.508Z,19.80
2023-03-08T08:50:04.362Z,22.10
2023-03-08T08:52:31.753Z,17.13
2023-03-08T08:54:59.229Z,19.92
2023-03-08T08:57:26.445Z,20.88
2023-03-08T08:59:53.602Z,19.65
2023-03-08T09:02:20.972Z,18.52
2023-03-08T09:04:48.435Z,20.95
2023-03-08T09:07:15.913Z,17.65
2023-03-08T09:09:43.297Z,17.25
2023-03-08T09:12:10.513Z,19.45
2023-03-08T09:14:37.683Z,17.52
2023-03-08T09:17:06.724Z,19.95
2023-03-08T09:19:34.192Z,18.80
2023-03-08T09:22:01.347Z,17.70
2023-03-08T09:24:28.658Z,20.58
2023-03-08T09:26:55.909Z,22.23
2023-03-08T09:29:23.121Z,18.50
2023-03-08T09:31:50.385Z,19.48
2023-03-08T09:34:17.654Z,16.48
2023-03-08T09:36:45.180Z,21.90
2023-03-08T09:39:13.759Z,17.00
2023-03-08T09:42:00.907Z,18.38
2023-03-08T09:45:16.509Z,20.45
2023-03-08T09:48:22.942Z,18.33
2023-03-08T09:50:52.558Z,18.75
2023-03-08T09:53:58.491Z,21.58
2023-03-08T09:56:33.561Z,22.40
2023-03-08T09:59:31.138Z,23.80
2023-03-08T10:02:25.460Z,22.20
2023-03-08T10:05:16.938Z,18.33
2023-03-08T10:08:25.422Z,20.02
2023-03-08T10:11:13.487Z,18.88
2023-03-08T10:13:48.909Z,16.40
2023-03-08T10:16:28.778Z,15.82
2023-03-08T10:19:41.435Z,18.10
2023-03-08T10:22:27.390Z,21.13
2023-03-08T10:25:13.844Z,20.70
2023-03-08T10:27:41.009Z,20.20
2023-03-08T10:30:21.585Z,20.52
2023-03-08T10:32:56.589Z,20.70
2023-03-08T10:36:12.599Z,19.75
2023-03-08T10:38:40.158Z,17.85
2023-03-08T10:41:18.060Z,18.60
2023-03-08T10:43:53.953Z,14.00
2023-03-08T10:46:26.826Z,16.83
2023-03-08T10:48:54.418Z,17.50
2023-03-08T10:51:29.537Z,16.88
2023-03-08T10:54:04.736Z,16.38
2023-03-08T10:56:44.768Z,17.50
2023-03-08T10:59:35.062Z,17.83
2023-03-08T11:02:23.337Z,14.23
2023-03-08T11:05:00.359Z,18.95
2023-03-08T11:07:33.480Z,18.88
2023-03-08T11:10:12.771Z,16.23
2023-03-08T11:12:40.375Z,19.55
2023-03-08T11:15:19.556Z,17.30
2023-03-08T11:18:19.513Z,14.63
2023-03-08T11:20:57.772Z,16.80
2023-03-08T11:23:40.172Z,17.05
2023-03-08T11:27:20.920Z,16.33
2023-03-08T11:30:18.036Z,17.75
2023-03-08T11:33:39.663Z,20.10
2023-03-08T11:36:27.269Z,19.70
2023-03-08T11:39:28.316Z,20.73
2023-03-08T11:42:50.437Z,20.27
2023-03-08T11:46:05.917Z,17.67
2023-03-08T11:48:49.501Z,22.00
2023-03-08T11:52:01.072Z,23.75
2023-03-08T11:55:07.410Z,15.70
2023-03-08T11:57:45.498Z,14.52
2023-03-08T12:00:35.211Z,16.00
2023-03-08T12:03:16.901Z,15.77
2023-03-08T12:05:58.400Z,15.48
2023-03-08T12:08:44.404Z,15.23
2023-03-08T12:11:27.264Z,14.60
2023-03-08T12:14:22.793Z,14.15
2023-03-08T12:17:21.730Z,16.42
2023-03-08T12:19:51.410Z,14.95
2023-03-08T12:22:39.380Z,16.08
2023-03-08T12:25:35.440Z,13.55
2023-03-08T12:28:30.454Z,16.38
2023-03-08T12:31:28.340Z,12.48
2023-03-08T12:33:59.468Z,13.57
2023-03-08T12:36:45.118Z,11.88
2023-03-08T12:39:35.922Z,12.48
2023-03-08T12:42:16.509Z,12.60
2023-03-08T12:47:14.102Z,15.60
2023-03-08T12:49:50.938Z,13.30
2023-03-08T12:52:18.426Z,12.32
2023-03-08T12:55:00.283Z,11.55
2023-03-08T12:57:47.589Z,11.60
2023-03-08T13:00:20.842Z,8.27
2023-03-08T13:03:02.585Z,10.23
2023-03-08T13:05:39.626Z,8.65
2023-03-08T13:08:12.773Z,11.05
2023-03-08T13:10:52.468Z,13.23
2023-03-08T13:13:39.697Z,10.75
2023-03-08T13:16:29.397Z,11.15
2023-03-08T13:19:27.584Z,13.52
2023-03-08T13:22:12.960Z,9.18
2023-03-08T13:25:56.774Z,10.20
2023-03-08T13:28:44.444Z,11.23
2023-03-08T13:31:25.075Z,12.00
2023-03-08T13:33:59.377Z,9.70
2023-03-08T13:36:33.264Z,9.48
2023-03-08T13:39:30.034Z,14.50
2023-03-08T13:42:12.852Z,11.23
2023-03-08T13:44:40.000Z,10.38
2023-03-08T13:47:26.961Z,12.25
2023-03-08T13:49:55.633Z,12.30
2023-03-08T13:52:29.865Z,16.38
2023-03-08T13:55:06.560Z,11.77
2023-03-08T13:57:38.055Z,12.60
2023-03-08T14:00:27.962Z,12.95
2023-03-08T14:02:57.609Z,7.57
2023-03-08T14:05:43.875Z,9.55
2023-03-08T14:08:25.704Z,11.63
2023-03-08T14:11:07.059Z,17.05
2023-03-08T14:13:38.539Z,11.05
2023-03-08T14:16:09.006Z,15.48
2023-03-08T14:18:38.972Z,13.88
2023-03-08T14:21:26.409Z,11.85
2023-03-08T14:24:02.122Z,12.90
2023-03-08T14:26:39.711Z,12.73
2023-03-08T14:29:21.690Z,15.18
2023-03-08T14:32:06.280Z,9.55
2023-03-08T14:34:51.628Z,9.75
2023-03-08T14:37:29.721Z,9.63
2023-03-08T14:40:14.538Z,12.32
2023-03-08T14:42:48.073Z,12.35
2023-03-08T14:45:26.440Z,8.60
2023-03-08T14:48:01.244Z,10.02
2023-03-08T14:50:34.796Z,7.55
2023-03-08T14:53:03.982Z,9.95
2023-03-08T14:55:38.518Z,10.15
2023-03-08T14:58:13.131Z,7.95
2023-03-08T15:00:55.898Z,9.18
2023-03-08T15:03:23.812Z,7.72
2023-03-08T15:05:52.985Z,12.57
2023-03-08T15:08:20.966Z,11.63
2023-03-08T15:10:49.688Z,9.75
2023-03-08T15:13:21.900Z,8.35
2023-03-08T15:15:50.272Z,7.38
2023-03-08T15:20:49.434Z,9.57
2023-03-08T15:23:31.672Z,9.60
2023-03-08T15:26:03.849Z,10.23
2023-03-08T15:28:31.050Z,10.60
2023-03-08T15:30:58.368Z,10.18
2023-03-08T15:33:25.534Z,10.82
2023-03-08T15:35:52.882Z,8.27
2023-03-08T15:38:21.452Z,9.95
2023-03-08T15:40:48.781Z,8.93
2023-03-08T15:43:15.925Z,9.25
2023-03-08T15:45:43.123Z,10.20
2023-03-08T15:48:17.484Z,13.40
2023-03-08T15:50:45.437Z,8.63
2023-03-08T15:53:20.629Z,11.60
2023-03-08T15:55:53.296Z,8.45
2023-03-08T15:58:20.449Z,10.30
2023-03-08T16:00:48.998Z,10.38
2023-03-08T16:03:25.711Z,13.55
2023-03-08T16:05:53.114Z,9.95
2023-03-08T16:08:25.711Z,9.52
2023-03-08T16:10:52.995Z,9.25
2023-03-08T16:13:22.037Z,9.45
2023-03-08T16:15:49.470Z,9.68
2023-03-08T16:18:16.976Z,9.38
2023-03-08T16:20:46.111Z,8.40
2023-03-08T16:23:13.400Z,7.95
2023-03-08T16:25:43.195Z,14.20
2023-03-08T16:28:10.659Z,9.43
2023-03-08T16:30:40.264Z,9.80
2023-03-08T16:33:07.407Z,12.15
2023-03-08T16:35:34.616Z,11.20
2023-03-08T16:38:01.779Z,11.80
2023-03-08T16:40:31.226Z,10.65
2023-03-08T16:42:58.571Z,11.45
2023-03-08T16:45:25.716Z,10.90
2023-03-08T16:50:21.108Z,11.45
2023-03-08T16:52:48.330Z,8.50
2023-03-08T16:55:15.564Z,10.43
2023-03-08T16:57:42.689Z,11.25
2023-03-08T17:00:12.698Z,10.07
2023-03-08T17:02:40.254Z,14.90
2023-03-08T17:05:10.612Z,9.88
2023-03-08T17:07:38.654Z,9.25
2023-03-08T17:10:07.329Z,8.95
2023-03-08T17:12:34.661Z,10.70
2023-03-08T17:15:04.717Z,9.45
2023-03-08T17:17:32.027Z,11.00
2023-03-08T17:20:00.563Z,12.05
2023-03-08T17:22:27.900Z,9.07
2023-03-08T17:24:55.446Z,12.40
2023-03-08T17:27:24.092Z,11.60
2023-03-08T17:29:51.484Z,11.75
2023-03-08T17:32:19.056Z,12.13
2023-03-08T17:34:46.236Z,12.07
2023-03-08T17:37:13.403Z,9.27
2023-03-08T17:39:41.491Z,13.60
2023-03-08T17:42:10.126Z,11.57
2023-03-08T17:44:37.296Z,16.05
2023-03-08T17:47:04.774Z,12.48
2023-03-08T17:49:34.110Z,12.43
2023-03-08T17:52:01.206Z,15.85
2023-03-08T17:54:28.410Z,11.27
2023-03-08T17:56:55.610Z,11.63
2023-03-08T17:59:22.903Z,13.18
2023-03-08T18:01:50.069Z,13.05
2023-03-08T18:04:18.968Z,11.55
2023-03-08T18:06:46.273Z,13.05
2023-03-08T18:09:16.534Z,13.15
2023-03-08T18:11:44.130Z,14.05
2023-03-08T18:14:14.533Z,17.98
2023-03-08T18:16:44.727Z,17.83
2023-03-08T18:19:12.275Z,14.73
2023-03-08T18:21:41.328Z,16.77
2023-03-08T18:24:14.208Z,19.23
2023-03-08T18:26:41.444Z,19.95
2023-03-08T18:29:08.648Z,21.48
2023-03-08T18:31:37.198Z,21.27
2023-03-08T18:34:06.073Z,25.45
2023-03-08T18:36:34.429Z,20.70
2023-03-08T18:39:06.356Z,21.00
2023-03-08T18:41:34.262Z,19.15
2023-03-08T18:44:01.683Z,19.48
2023-03-08T18:46:32.443Z,21.70
2023-03-08T18:49:08.235Z,16.48
2023-03-08T18:51:39.803Z,21.50
2023-03-08T18:54:09.278Z,28.80
2023-03-08T18:56:36.644Z,18.50
2023-03-08T18:59:07.008Z,26.80
2023-03-08T19:01:34.841Z,23.98
2023-03-08T19:04:06.069Z,22.05
2023-03-08T19:06:35.693Z,19.83
2023-03-08T19:09:16.226Z,18.45
2023-03-08T19:14:12.750Z,19.48
2023-03-08T19:16:40.137Z,16.77
2023-03-08T19:19:14.611Z,15.95
2023-03-08T19:21:50.830Z,20.25
2023-03-08T19:24:21.097Z,19.05
2023-03-08T19:26:52.573Z,15.02
2023-03-08T19:29:27.901Z,17.85
2023-03-08T19:32:05.631Z,20.83
2023-03-08T19:34:40.309Z,19.55
2023-03-08T19:37:09.461Z,22.33
2023-03-08T19:39:38.749Z,19.45
2023-03-08T19:42:11.472Z,16.83
2023-03-08T19:44:38.955Z,15.93
2023-03-08T19:47:06.727Z,15.13
2023-03-08T19:49:36.856Z,17.17
2023-03-08T19:52:07.264Z,18.92
2023-03-08T19:54:35.251Z,21.25
2023-03-08T19:57:02.934Z,17.73
2023-03-08T19:59:30.855Z,15.90
2023-03-08T20:01:58.189Z,19.58
2023-03-08T20:04:25.631Z,14.35
2023-03-08T20:06:53.010Z,18.35
2023-03-08T20:09:21.697Z,19.00
2023-03-08T20:11:53.296Z,21.30
2023-03-08T20:14:24.178Z,26.45
2023-03-08T20:16:51.527Z,27.10
2023-03-08T20:19:19.048Z,43.75
2023-03-08T20:21:46.400Z,32.33
2023-03-08T20:24:14.196Z,34.78
2023-03-08T20:26:41.967Z,27.63
2023-03-08T20:29:09.632Z,26.65
2023-03-08T20:31:36.828Z,24.75
2023-03-08T20:34:04.360Z,24.02
2023-03-08T20:36:32.800Z,19.65
2023-03-08T20:39:00.835Z,23.35
2023-03-08T20:41:32.149Z,22.67
2023-03-08T20:43:59.380Z,17.88
2023-03-08T20:46:33.032Z,21.02
2023-03-08T20:49:01.667Z,24.95
2023-03-08T20:51:29.580Z,19.58
2023-03-08T20:53:58.617Z,20.42
2023-03-08T20:56:32.455Z,21.45
2023-03-08T20:59:00.494Z,19.52
2023-03-08T21:01:32.694Z,20.67
2023-03-08T21:04:03.900Z,17.35
2023-03-08T21:06:32.190Z,20.70
2023-03-08T21:09:00.875Z,13.95
2023-03-08T21:11:28.956Z,23.42
2023-03-08T21:13:56.525Z,20.50
2023-03-08T21:16:27.305Z,20.60
2023-03-08T21:19:00.672Z,12.95
2023-03-08T21:21:35.412Z,18.90
2023-03-08T21:24:19.842Z,17.27
2023-03-08T21:26:47.093Z,19.08
2023-03-08T21:29:18.851Z,16.05
2023-03-08T21:31:53.371Z,16.55
2023-03-08T21:36:48.898Z,13.52
2023-03-08T21:39:16.687Z,16.90
2023-03-08T21:41:47.406Z,14.00
2023-03-08T21:44:20.456Z,16.73
2023-03-08T21:46:51.503Z,17.75
2023-03-08T21:49:29.472Z,19.45
2023-03-08T21:51:58.923Z,17.52
2023-03-08T21:54:29.498Z,16.75
2023-03-08T21:56:58.147Z,12.52
2023-03-08T21:59:27.009Z,12.73
2023-03-08T22:01:58.285Z,13.75
2023-03-08T22:04:26.728Z,28.40
2023-03-08T22:06:55.640Z,28.75
2023-03-08T22:09:26.642Z,13.85
2023-03-08T22:11:54.095Z,15.07
2023-03-08T22:14:21.367Z,16.13
2023-03-08T22:16:49.368Z,16.48
2023-03-08T22:19:17.941Z,13.65
2023-03-08T22:21:45.168Z,15.68
2023-03-08T22:24:12.327Z,12.80
2023-03-08T22:26:39.537Z,11.05
2023-03-08T22:29:06.719Z,11.55
2023-03-08T22:31:34.226Z,22.98
2023-03-08T22:34:01.509Z,12.65
2023-03-08T22:36:28.836Z,13.95
2023-03-08T22:38:56.236Z,14.57
2023-03-08T22:41:27.296Z,14.32
2023-03-08T22:43:55.284Z,18.42
2023-03-08T22:46:27.374Z,12.88
2023-03-08T22:48:58.107Z,11.73
2023-03-08T22:51:28.239Z,14.60
2023-03-08T22:53:56.161Z,12.18
2023-03-08T22:56:31.714Z,14.38
2023-03-08T22:59:01.906Z,12.60
2023-03-08T23:01:30.909Z,11.57
2023-03-08T23:04:01.093Z,16.35
2023-03-08T23:06:30.725Z,13.60
2023-03-08T23:09:06.212Z,11.48
2023-03-08T23:11:35.551Z,13.68
2023-03-08T23:14:03.364Z,13.43
2023-03-08T23:16:30.737Z,16.45
2023-03-08T23:18:57.963Z,14.52
2023-03-08T23:21:29.804Z,14.27
2023-03-08T23:23:58.195Z,14.10
2023-03-08T23:26:28.317Z,14.23
2023-03-08T23:28:58.782Z,14.73
2023-03-08T23:31:30.066Z,15.93
2023-03-08T23:33:58.044Z,12.93
2023-03-08T23:36:26.939Z,12.90
2023-03-08T23:38:55.258Z,17.17
2023-03-08T23:41:22.526Z,13.50
2023-03-08T23:43:53.789Z,13.75
2023-03-08T23:46:24.395Z,14.52
2023-03-08T23:48:55.142Z,14.20
2023-03-08T23:51:24.505Z,10.05
2023-03-08T23:53:56.675Z,12.73
2023-03-08T23:56:40.208Z,12.82
2023-03-08T23:59:21.778Z,11.48
